Northwest, Indiana
Current Conditions -  °F | °C
As of 5:55 PM on Wednesday 26 Nov 2014 (Local Time) from KDCY Reporting Station
Overcast Overcast  
Wind Chill: 37°   Ceiling: 9000
Heat Index: 37°   Visibility: 10mi
Dew Point: 32°   Wind: 0mph
Humidity: 84%   Direction: NA
Pressure: 30.03"   Gusts: NA
Location:  38.6165°N, 86.6265°W
Report Text: KDCY 262255Z AUTO 00000KT 10SM OVC090 03/00 A3003 RMK AO2 T00260002
Loading
Personal Weather Stations






























Interactive Weather Map New forecast layout! Learn more

10-Day Weather Forecast

Advertisements
Track Severe Weather on mobile